Ahsahka, Idaho
Current Conditions -  °F | °C
As of 1:56 AM on Wednesday 26 Nov 2014 (Local Time) from KLWS Reporting Station
Overcast Overcast  
Wind Chill: 42°   Ceiling: 4900
Heat Index: 42°   Visibility: 10mi
Dew Point: 40°   Wind: 3mph
Humidity: 92%   Direction: 160°SSE
Pressure: 30.18"   Gusts: NA
Location:  46.51°N, 116.35°W
Report Text: KLWS 260956Z AUTO 16003KT 10SM BKN049 OVC065 06/04 A3018 RMK AO2 SLP227 T00560044 $
Loading
Personal Weather Stations






























Interactive Weather Map New forecast layout! Learn more

10-Day Weather Forecast

Advertisements
Track Severe Weather on mobile